sensor_id;sensor_type;location;lat;lon;timestamp;P1;durP1;ratioP1;P2;durP2;ratioP2
59193;SDS011;44967;48.598;15.650;2024-03-08T00:00:13;46.72;;;23.33;;
59193;SDS011;44967;48.598;15.650;2024-03-08T00:02:41;48.00;;;23.83;;
59193;SDS011;44967;48.598;15.650;2024-03-08T00:05:07;46.33;;;22.70;;
59193;SDS011;44967;48.598;15.650;2024-03-08T00:07:34;45.47;;;22.98;;
59193;SDS011;44967;48.598;15.650;2024-03-08T00:10:02;47.70;;;23.70;;
59193;SDS011;44967;48.598;15.650;2024-03-08T00:12:32;49.55;;;22.92;;
59193;SDS011;44967;48.598;15.650;2024-03-08T00:14:58;45.95;;;21.73;;
59193;SDS011;44967;48.598;15.650;2024-03-08T00:17:24;45.08;;;23.10;;
59193;SDS011;44967;48.598;15.650;2024-03-08T00:19:50;47.80;;;23.80;;
59193;SDS011;44967;48.598;15.650;2024-03-08T00:22:16;48.42;;;23.17;;
59193;SDS011;44967;48.598;15.650;2024-03-08T00:24:42;45.95;;;22.73;;
59193;SDS011;44967;48.598;15.650;2024-03-08T00:27:09;45.88;;;22.70;;
59193;SDS011;44967;48.598;15.650;2024-03-08T00:29:35;44.22;;;21.77;;
59193;SDS011;44967;48.598;15.650;2024-03-08T00:32:00;38.70;;;21.92;;
59193;SDS011;44967;48.598;15.650;2024-03-08T00:34:27;46.80;;;22.35;;
59193;SDS011;44967;48.598;15.650;2024-03-08T00:36:52;40.28;;;19.88;;
59193;SDS011;44967;48.598;15.650;2024-03-08T00:39:18;42.55;;;20.42;;
59193;SDS011;44967;48.598;15.650;2024-03-08T00:41:48;39.17;;;21.45;;
59193;SDS011;44967;48.598;15.650;2024-03-08T00:44:13;42.25;;;21.55;;
59193;SDS011;44967;48.598;15.650;2024-03-08T00:46:39;41.70;;;21.58;;
59193;SDS011;44967;48.598;15.650;2024-03-08T00:49:05;41.28;;;20.05;;
59193;SDS011;44967;48.598;15.650;2024-03-08T00:51:32;38.75;;;20.55;;
59193;SDS011;44967;48.598;15.650;2024-03-08T00:53:58;38.47;;;19.42;;
59193;SDS011;44967;48.598;15.650;2024-03-08T00:56:23;40.60;;;20.27;;
59193;SDS011;44967;48.598;15.650;2024-03-08T00:58:50;34.63;;;18.20;;
59193;SDS011;44967;48.598;15.650;2024-03-08T01:01:18;38.97;;;19.17;;
59193;SDS011;44967;48.598;15.650;2024-03-08T01:03:44;44.63;;;20.42;;
59193;SDS011;44967;48.598;15.650;2024-03-08T01:06:10;38.15;;;19.08;;
59193;SDS011;44967;48.598;15.650;2024-03-08T01:08:37;36.90;;;19.55;;
59193;SDS011;44967;48.598;15.650;2024-03-08T01:11:04;38.90;;;17.77;;
59193;SDS011;44967;48.598;15.650;2024-03-08T01:13:30;36.33;;;18.63;;
59193;SDS011;44967;48.598;15.650;2024-03-08T01:15:56;36.40;;;19.23;;
59193;SDS011;44967;48.598;15.650;2024-03-08T01:18:22;31.48;;;17.10;;
59193;SDS011;44967;48.598;15.650;2024-03-08T01:20:47;34.47;;;18.48;;
59193;SDS011;44967;48.598;15.650;2024-03-08T01:23:13;38.05;;;17.92;;
59193;SDS011;44967;48.598;15.650;2024-03-08T01:25:39;38.08;;;18.73;;
59193;SDS011;44967;48.598;15.650;2024-03-08T01:28:06;36.80;;;18.65;;
59193;SDS011;44967;48.598;15.650;2024-03-08T01:30:32;35.88;;;18.92;;
59193;SDS011;44967;48.598;15.650;2024-03-08T01:33:00;36.17;;;18.70;;
59193;SDS011;44967;48.598;15.650;2024-03-08T01:35:25;38.75;;;18.85;;
59193;SDS011;44967;48.598;15.650;2024-03-08T01:37:52;36.25;;;19.55;;
59193;SDS011;44967;48.598;15.650;2024-03-08T01:40:20;35.97;;;18.33;;
59193;SDS011;44967;48.598;15.650;2024-03-08T01:42:46;36.88;;;17.98;;
59193;SDS011;44967;48.598;15.650;2024-03-08T01:45:13;39.47;;;18.33;;
59193;SDS011;44967;48.598;15.650;2024-03-08T01:47:39;37.40;;;19.13;;
59193;SDS011;44967;48.598;15.650;2024-03-08T01:50:05;39.00;;;19.13;;
59193;SDS011;44967;48.598;15.650;2024-03-08T01:52:32;36.50;;;18.35;;
59193;SDS011;44967;48.598;15.650;2024-03-08T01:55:00;36.80;;;18.17;;
59193;SDS011;44967;48.598;15.650;2024-03-08T01:57:28;41.13;;;18.67;;
59193;SDS011;44967;48.598;15.650;2024-03-08T01:59:56;33.95;;;18.58;;
59193;SDS011;44967;48.598;15.650;2024-03-08T02:02:22;38.70;;;18.23;;
59193;SDS011;44967;48.598;15.650;2024-03-08T02:04:48;40.00;;;19.02;;
59193;SDS011;44967;48.598;15.650;2024-03-08T02:07:14;40.45;;;19.23;;
59193;SDS011;44967;48.598;15.650;2024-03-08T02:09:40;36.28;;;17.73;;
59193;SDS011;44967;48.598;15.650;2024-03-08T02:12:06;33.60;;;17.63;;
59193;SDS011;44967;48.598;15.650;2024-03-08T02:14:33;35.33;;;17.05;;
59193;SDS011;44967;48.598;15.650;2024-03-08T02:17:02;34.92;;;18.25;;
59193;SDS011;44967;48.598;15.650;2024-03-08T02:19:28;32.58;;;16.85;;
59193;SDS011;44967;48.598;15.650;2024-03-08T02:21:53;35.38;;;17.25;;
59193;SDS011;44967;48.598;15.650;2024-03-08T02:24:20;36.72;;;18.30;;
59193;SDS011;44967;48.598;15.650;2024-03-08T02:26:46;33.97;;;17.02;;
59193;SDS011;44967;48.598;15.650;2024-03-08T02:29:12;33.10;;;16.83;;
59193;SDS011;44967;48.598;15.650;2024-03-08T02:31:38;31.55;;;17.30;;
59193;SDS011;44967;48.598;15.650;2024-03-08T02:34:04;31.92;;;16.98;;
59193;SDS011;44967;48.598;15.650;2024-03-08T02:36:30;32.10;;;17.60;;
59193;SDS011;44967;48.598;15.650;2024-03-08T02:39:01;33.70;;;16.75;;
59193;SDS011;44967;48.598;15.650;2024-03-08T02:41:28;32.17;;;16.98;;
59193;SDS011;44967;48.598;15.650;2024-03-08T02:43:53;37.17;;;18.67;;
59193;SDS011;44967;48.598;15.650;2024-03-08T02:46:20;37.58;;;18.05;;
59193;SDS011;44967;48.598;15.650;2024-03-08T02:48:46;30.42;;;17.75;;
59193;SDS011;44967;48.598;15.650;2024-03-08T02:51:12;33.65;;;18.65;;
59193;SDS011;44967;48.598;15.650;2024-03-08T02:53:38;37.28;;;17.48;;
59193;SDS011;44967;48.598;15.650;2024-03-08T02:56:04;33.85;;;18.42;;
59193;SDS011;44967;48.598;15.650;2024-03-08T02:58:34;32.47;;;17.80;;
59193;SDS011;44967;48.598;15.650;2024-03-08T03:00:59;39.92;;;18.58;;
59193;SDS011;44967;48.598;15.650;2024-03-08T03:03:25;39.42;;;19.50;;
59193;SDS011;44967;48.598;15.650;2024-03-08T03:05:52;35.10;;;17.67;;
59193;SDS011;44967;48.598;15.650;2024-03-08T03:08:21;32.30;;;17.10;;
59193;SDS011;44967;48.598;15.650;2024-03-08T03:10:47;31.73;;;16.60;;
59193;SDS011;44967;48.598;15.650;2024-03-08T03:13:13;32.47;;;17.50;;
59193;SDS011;44967;48.598;15.650;2024-03-08T03:15:39;37.90;;;18.50;;
59193;SDS011;44967;48.598;15.650;2024-03-08T03:18:08;33.42;;;16.55;;
59193;SDS011;44967;48.598;15.650;2024-03-08T03:20:34;33.60;;;17.63;;
59193;SDS011;44967;48.598;15.650;2024-03-08T03:23:05;30.75;;;16.15;;
59193;SDS011;44967;48.598;15.650;2024-03-08T03:25:34;30.48;;;16.05;;
59193;SDS011;44967;48.598;15.650;2024-03-08T03:28:01;32.47;;;17.02;;
59193;SDS011;44967;48.598;15.650;2024-03-08T03:30:28;30.48;;;15.85;;
59193;SDS011;44967;48.598;15.650;2024-03-08T03:33:01;34.85;;;18.27;;
59193;SDS011;44967;48.598;15.650;2024-03-08T03:35:32;29.63;;;16.33;;
59193;SDS011;44967;48.598;15.650;2024-03-08T03:37:58;26.13;;;16.13;;
59193;SDS011;44967;48.598;15.650;2024-03-08T03:40:28;34.70;;;17.63;;
59193;SDS011;44967;48.598;15.650;2024-03-08T03:42:54;32.28;;;15.93;;
59193;SDS011;44967;48.598;15.650;2024-03-08T03:45:21;33.85;;;15.73;;
59193;SDS011;44967;48.598;15.650;2024-03-08T03:47:46;31.92;;;15.90;;
59193;SDS011;44967;48.598;15.650;2024-03-08T03:50:12;31.95;;;17.23;;
59193;SDS011;44967;48.598;15.650;2024-03-08T03:52:38;30.90;;;16.30;;
59193;SDS011;44967;48.598;15.650;2024-03-08T03:55:04;35.95;;;17.10;;
59193;SDS011;44967;48.598;15.650;2024-03-08T03:57:30;30.35;;;16.95;;
59193;SDS011;44967;48.598;15.650;2024-03-08T03:59:56;32.70;;;16.58;;
59193;SDS011;44967;48.598;15.650;2024-03-08T04:02:28;33.25;;;16.75;;
59193;SDS011;44967;48.598;15.650;2024-03-08T04:04:53;38.60;;;18.15;;
59193;SDS011;44967;48.598;15.650;2024-03-08T04:07:20;35.10;;;15.88;;
59193;SDS011;44967;48.598;15.650;2024-03-08T04:09:46;32.45;;;16.75;;
59193;SDS011;44967;48.598;15.650;2024-03-08T04:12:12;31.77;;;16.88;;
59193;SDS011;44967;48.598;15.650;2024-03-08T04:14:41;36.20;;;18.10;;
59193;SDS011;44967;48.598;15.650;2024-03-08T04:17:08;32.45;;;15.88;;
59193;SDS011;44967;48.598;15.650;2024-03-08T04:19:38;30.00;;;15.88;;
59193;SDS011;44967;48.598;15.650;2024-03-08T04:22:05;31.00;;;15.88;;
59193;SDS011;44967;48.598;15.650;2024-03-08T04:24:33;38.50;;;17.35;;
59193;SDS011;44967;48.598;15.650;2024-03-08T04:26:59;31.55;;;16.35;;
59193;SDS011;44967;48.598;15.650;2024-03-08T04:29:25;31.67;;;15.98;;
59193;SDS011;44967;48.598;15.650;2024-03-08T04:31:51;36.70;;;18.13;;
59193;SDS011;44967;48.598;15.650;2024-03-08T04:34:20;35.78;;;16.42;;
59193;SDS011;44967;48.598;15.650;2024-03-08T04:36:49;32.50;;;15.68;;
59193;SDS011;44967;48.598;15.650;2024-03-08T04:39:15;34.90;;;16.52;;
59193;SDS011;44967;48.598;15.650;2024-03-08T04:41:41;30.38;;;16.83;;
59193;SDS011;44967;48.598;15.650;2024-03-08T04:44:11;30.15;;;16.88;;
59193;SDS011;44967;48.598;15.650;2024-03-08T04:46:38;31.00;;;16.38;;
59193;SDS011;44967;48.598;15.650;2024-03-08T04:49:04;31.98;;;17.05;;
59193;SDS011;44967;48.598;15.650;2024-03-08T04:51:29;30.05;;;15.07;;
59193;SDS011;44967;48.598;15.650;2024-03-08T04:53:55;33.20;;;17.10;;
59193;SDS011;44967;48.598;15.650;2024-03-08T04:56:22;29.05;;;16.15;;
59193;SDS011;44967;48.598;15.650;2024-03-08T04:58:48;27.63;;;15.30;;
59193;SDS011;44967;48.598;15.650;2024-03-08T05:01:14;31.75;;;16.20;;
59193;SDS011;44967;48.598;15.650;2024-03-08T05:03:39;32.97;;;16.88;;
59193;SDS011;44967;48.598;15.650;2024-03-08T05:06:05;32.92;;;16.27;;
59193;SDS011;44967;48.598;15.650;2024-03-08T05:08:31;29.55;;;16.10;;
59193;SDS011;44967;48.598;15.650;2024-03-08T05:10:58;34.20;;;16.60;;
59193;SDS011;44967;48.598;15.650;2024-03-08T05:13:26;31.70;;;16.23;;
59193;SDS011;44967;48.598;15.650;2024-03-08T05:15:52;35.28;;;17.02;;
59193;SDS011;44967;48.598;15.650;2024-03-08T05:18:17;32.53;;;17.42;;
59193;SDS011;44967;48.598;15.650;2024-03-08T05:20:43;34.10;;;17.50;;
59193;SDS011;44967;48.598;15.650;2024-03-08T05:23:09;28.67;;;15.23;;
59193;SDS011;44967;48.598;15.650;2024-03-08T05:25:35;29.65;;;15.73;;
59193;SDS011;44967;48.598;15.650;2024-03-08T05:28:01;34.83;;;17.42;;
59193;SDS011;44967;48.598;15.650;2024-03-08T05:30:27;32.83;;;16.15;;
59193;SDS011;44967;48.598;15.650;2024-03-08T05:32:54;29.58;;;16.02;;
59193;SDS011;44967;48.598;15.650;2024-03-08T05:35:20;29.02;;;15.20;;
59193;SDS011;44967;48.598;15.650;2024-03-08T05:37:46;32.47;;;16.15;;
59193;SDS011;44967;48.598;15.650;2024-03-08T05:40:11;29.90;;;16.08;;
59193;SDS011;44967;48.598;15.650;2024-03-08T05:42:37;29.05;;;15.25;;
59193;SDS011;44967;48.598;15.650;2024-03-08T05:45:03;32.97;;;16.92;;
59193;SDS011;44967;48.598;15.650;2024-03-08T05:47:31;32.60;;;16.23;;
59193;SDS011;44967;48.598;15.650;2024-03-08T05:50:01;30.73;;;16.25;;
59193;SDS011;44967;48.598;15.650;2024-03-08T05:52:27;28.30;;;16.58;;
59193;SDS011;44967;48.598;15.650;2024-03-08T05:54:53;31.58;;;15.77;;
59193;SDS011;44967;48.598;15.650;2024-03-08T05:57:18;32.75;;;16.27;;
59193;SDS011;44967;48.598;15.650;2024-03-08T05:59:45;31.77;;;16.38;;
59193;SDS011;44967;48.598;15.650;2024-03-08T06:02:10;33.60;;;17.23;;
59193;SDS011;44967;48.598;15.650;2024-03-08T06:04:36;33.17;;;16.92;;
59193;SDS011;44967;48.598;15.650;2024-03-08T06:07:03;33.22;;;17.20;;
59193;SDS011;44967;48.598;15.650;2024-03-08T06:09:29;29.05;;;15.63;;
59193;SDS011;44967;48.598;15.650;2024-03-08T06:11:55;29.52;;;16.60;;
59193;SDS011;44967;48.598;15.650;2024-03-08T06:14:22;32.67;;;16.92;;
59193;SDS011;44967;48.598;15.650;2024-03-08T06:16:48;30.52;;;17.25;;
59193;SDS011;44967;48.598;15.650;2024-03-08T06:19:15;34.75;;;17.73;;
59193;SDS011;44967;48.598;15.650;2024-03-08T06:21:41;30.42;;;17.02;;
59193;SDS011;44967;48.598;15.650;2024-03-08T06:24:07;30.90;;;17.10;;
59193;SDS011;44967;48.598;15.650;2024-03-08T06:26:33;38.00;;;18.15;;
59193;SDS011;44967;48.598;15.650;2024-03-08T06:28:59;31.00;;;17.65;;
59193;SDS011;44967;48.598;15.650;2024-03-08T06:31:25;34.63;;;17.63;;
59193;SDS011;44967;48.598;15.650;2024-03-08T06:33:51;36.28;;;18.42;;
59193;SDS011;44967;48.598;15.650;2024-03-08T06:36:19;32.63;;;17.52;;
59193;SDS011;44967;48.598;15.650;2024-03-08T06:38:47;33.17;;;17.95;;
59193;SDS011;44967;48.598;15.650;2024-03-08T06:41:14;39.63;;;17.98;;
59193;SDS011;44967;48.598;15.650;2024-03-08T06:43:43;32.95;;;17.92;;
59193;SDS011;44967;48.598;15.650;2024-03-08T06:46:10;38.15;;;19.75;;
59193;SDS011;44967;48.598;15.650;2024-03-08T06:48:40;37.63;;;18.17;;
59193;SDS011;44967;48.598;15.650;2024-03-08T06:51:05;35.97;;;17.10;;
59193;SDS011;44967;48.598;15.650;2024-03-08T06:53:32;36.53;;;18.35;;
59193;SDS011;44967;48.598;15.650;2024-03-08T06:55:58;31.13;;;17.63;;
59193;SDS011;44967;48.598;15.650;2024-03-08T06:58:24;36.45;;;18.95;;
59193;SDS011;44967;48.598;15.650;2024-03-08T07:00:50;34.63;;;17.50;;
59193;SDS011;44967;48.598;15.650;2024-03-08T07:03:18;33.80;;;18.73;;
59193;SDS011;44967;48.598;15.650;2024-03-08T07:05:44;40.35;;;19.70;;
59193;SDS011;44967;48.598;15.650;2024-03-08T07:08:10;35.05;;;18.58;;
59193;SDS011;44967;48.598;15.650;2024-03-08T07:10:39;38.35;;;20.42;;
59193;SDS011;44967;48.598;15.650;2024-03-08T07:13:07;34.25;;;18.23;;
59193;SDS011;44967;48.598;15.650;2024-03-08T07:15:33;33.13;;;18.42;;
59193;SDS011;44967;48.598;15.650;2024-03-08T07:17:59;32.75;;;18.05;;
59193;SDS011;44967;48.598;15.650;2024-03-08T07:20:25;36.00;;;18.38;;
59193;SDS011;44967;48.598;15.650;2024-03-08T07:22:51;36.83;;;18.77;;
59193;SDS011;44967;48.598;15.650;2024-03-08T07:25:17;37.15;;;18.63;;
59193;SDS011;44967;48.598;15.650;2024-03-08T07:27:54;37.92;;;20.23;;
59193;SDS011;44967;48.598;15.650;2024-03-08T07:30:21;35.95;;;22.60;;
59193;SDS011;44967;48.598;15.650;2024-03-08T07:33:06;37.92;;;19.48;;
59193;SDS011;44967;48.598;15.650;2024-03-08T07:35:32;43.90;;;20.85;;
59193;SDS011;44967;48.598;15.650;2024-03-08T07:38:02;43.10;;;20.27;;
59193;SDS011;44967;48.598;15.650;2024-03-08T07:40:31;37.20;;;19.20;;
59193;SDS011;44967;48.598;15.650;2024-03-08T07:43:00;37.78;;;19.90;;
59193;SDS011;44967;48.598;15.650;2024-03-08T07:45:27;40.05;;;19.10;;
59193;SDS011;44967;48.598;15.650;2024-03-08T07:47:53;39.67;;;19.58;;
59193;SDS011;44967;48.598;15.650;2024-03-08T07:50:19;35.83;;;19.13;;
59193;SDS011;44967;48.598;15.650;2024-03-08T07:52:48;40.85;;;20.65;;
59193;SDS011;44967;48.598;15.650;2024-03-08T07:55:13;43.25;;;21.58;;
59193;SDS011;44967;48.598;15.650;2024-03-08T07:57:40;44.08;;;20.85;;
59193;SDS011;44967;48.598;15.650;2024-03-08T08:00:08;41.63;;;20.15;;
59193;SDS011;44967;48.598;15.650;2024-03-08T08:02:36;38.50;;;19.55;;
59193;SDS011;44967;48.598;15.650;2024-03-08T08:05:02;42.22;;;21.05;;
59193;SDS011;44967;48.598;15.650;2024-03-08T08:07:29;38.53;;;19.92;;
59193;SDS011;44967;48.598;15.650;2024-03-08T08:09:54;41.25;;;20.67;;
59193;SDS011;44967;48.598;15.650;2024-03-08T08:12:20;42.55;;;21.48;;
59193;SDS011;44967;48.598;15.650;2024-03-08T08:14:46;41.92;;;21.83;;
59193;SDS011;44967;48.598;15.650;2024-03-08T08:17:12;43.20;;;21.50;;
59193;SDS011;44967;48.598;15.650;2024-03-08T08:19:38;42.08;;;20.65;;
59193;SDS011;44967;48.598;15.650;2024-03-08T08:22:06;39.22;;;22.10;;
59193;SDS011;44967;48.598;15.650;2024-03-08T08:24:34;45.35;;;23.20;;
59193;SDS011;44967;48.598;15.650;2024-03-08T08:27:02;47.25;;;23.90;;
59193;SDS011;44967;48.598;15.650;2024-03-08T08:29:29;44.17;;;24.85;;
59193;SDS011;44967;48.598;15.650;2024-03-08T08:31:57;44.95;;;23.77;;
59193;SDS011;44967;48.598;15.650;2024-03-08T08:34:24;54.42;;;25.67;;
59193;SDS011;44967;48.598;15.650;2024-03-08T08:36:52;47.28;;;24.10;;
59193;SDS011;44967;48.598;15.650;2024-03-08T08:39:18;50.47;;;23.50;;
59193;SDS011;44967;48.598;15.650;2024-03-08T08:41:44;44.00;;;22.63;;
59193;SDS011;44967;48.598;15.650;2024-03-08T08:44:10;54.60;;;26.23;;
59193;SDS011;44967;48.598;15.650;2024-03-08T08:46:37;48.30;;;24.55;;
59193;SDS011;44967;48.598;15.650;2024-03-08T08:49:04;50.95;;;25.13;;
59193;SDS011;44967;48.598;15.650;2024-03-08T08:51:32;47.00;;;25.00;;
59193;SDS011;44967;48.598;15.650;2024-03-08T08:53:59;47.40;;;23.60;;
59193;SDS011;44967;48.598;15.650;2024-03-08T08:56:25;43.92;;;22.98;;
59193;SDS011;44967;48.598;15.650;2024-03-08T08:58:51;47.85;;;24.20;;
59193;SDS011;44967;48.598;15.650;2024-03-08T09:01:20;45.88;;;25.13;;
59193;SDS011;44967;48.598;15.650;2024-03-08T09:03:46;47.08;;;23.77;;
59193;SDS011;44967;48.598;15.650;2024-03-08T09:06:12;44.90;;;23.77;;
59193;SDS011;44967;48.598;15.650;2024-03-08T09:08:44;48.47;;;24.58;;
59193;SDS011;44967;48.598;15.650;2024-03-08T09:11:11;46.38;;;24.13;;
59193;SDS011;44967;48.598;15.650;2024-03-08T09:13:36;43.50;;;23.27;;
59193;SDS011;44967;48.598;15.650;2024-03-08T09:16:03;45.42;;;23.65;;
59193;SDS011;44967;48.598;15.650;2024-03-08T09:18:30;50.08;;;25.00;;
59193;SDS011;44967;48.598;15.650;2024-03-08T09:20:58;49.47;;;25.58;;
59193;SDS011;44967;48.598;15.650;2024-03-08T09:23:25;49.60;;;24.00;;
59193;SDS011;44967;48.598;15.650;2024-03-08T09:25:56;53.92;;;27.00;;
59193;SDS011;44967;48.598;15.650;2024-03-08T09:28:23;56.47;;;27.63;;
59193;SDS011;44967;48.598;15.650;2024-03-08T09:30:49;55.90;;;27.90;;
59193;SDS011;44967;48.598;15.650;2024-03-08T09:33:14;55.20;;;26.67;;
59193;SDS011;44967;48.598;15.650;2024-03-08T09:35:47;55.95;;;27.65;;
59193;SDS011;44967;48.598;15.650;2024-03-08T09:38:16;51.33;;;25.80;;
59193;SDS011;44967;48.598;15.650;2024-03-08T09:40:42;52.28;;;25.88;;
59193;SDS011;44967;48.598;15.650;2024-03-08T09:43:08;52.60;;;26.45;;
59193;SDS011;44967;48.598;15.650;2024-03-08T09:45:37;48.25;;;25.65;;
59193;SDS011;44967;48.598;15.650;2024-03-08T09:48:10;43.15;;;23.92;;
59193;SDS011;44967;48.598;15.650;2024-03-08T09:50:42;51.80;;;23.30;;
59193;SDS011;44967;48.598;15.650;2024-03-08T09:53:09;47.75;;;24.10;;
59193;SDS011;44967;48.598;15.650;2024-03-08T09:55:40;52.05;;;26.20;;
59193;SDS011;44967;48.598;15.650;2024-03-08T09:58:11;48.63;;;24.77;;
59193;SDS011;44967;48.598;15.650;2024-03-08T10:00:53;54.20;;;25.75;;
59193;SDS011;44967;48.598;15.650;2024-03-08T10:03:19;47.72;;;25.00;;
59193;SDS011;44967;48.598;15.650;2024-03-08T10:05:45;49.55;;;24.85;;
59193;SDS011;44967;48.598;15.650;2024-03-08T10:08:11;49.60;;;24.13;;
59193;SDS011;44967;48.598;15.650;2024-03-08T10:10:38;51.22;;;25.08;;
59193;SDS011;44967;48.598;15.650;2024-03-08T10:13:07;44.80;;;23.13;;
59193;SDS011;44967;48.598;15.650;2024-03-08T10:15:34;43.95;;;23.90;;
59193;SDS011;44967;48.598;15.650;2024-03-08T10:18:01;44.35;;;21.95;;
59193;SDS011;44967;48.598;15.650;2024-03-08T10:20:28;47.78;;;23.63;;
59193;SDS011;44967;48.598;15.650;2024-03-08T10:23:00;41.13;;;20.77;;
59193;SDS011;44967;48.598;15.650;2024-03-08T10:25:28;42.00;;;21.23;;
59193;SDS011;44967;48.598;15.650;2024-03-08T10:27:57;46.60;;;23.05;;
59193;SDS011;44967;48.598;15.650;2024-03-08T10:30:23;44.97;;;24.13;;
59193;SDS011;44967;48.598;15.650;2024-03-08T10:32:49;40.80;;;21.63;;
59193;SDS011;44967;48.598;15.650;2024-03-08T10:35:15;42.70;;;21.55;;
59193;SDS011;44967;48.598;15.650;2024-03-08T10:37:51;42.65;;;22.13;;
59193;SDS011;44967;48.598;15.650;2024-03-08T10:40:29;41.08;;;22.52;;
59193;SDS011;44967;48.598;15.650;2024-03-08T10:42:56;42.75;;;22.75;;
59193;SDS011;44967;48.598;15.650;2024-03-08T10:45:31;44.95;;;22.15;;
59193;SDS011;44967;48.598;15.650;2024-03-08T10:48:10;42.75;;;22.30;;
59193;SDS011;44967;48.598;15.650;2024-03-08T10:50:59;42.30;;;22.17;;
59193;SDS011;44967;48.598;15.650;2024-03-08T10:53:27;44.78;;;22.45;;
59193;SDS011;44967;48.598;15.650;2024-03-08T10:55:57;43.55;;;21.25;;
59193;SDS011;44967;48.598;15.650;2024-03-08T10:58:28;37.38;;;20.70;;
59193;SDS011;44967;48.598;15.650;2024-03-08T11:00:55;35.65;;;20.70;;
59193;SDS011;44967;48.598;15.650;2024-03-08T11:06:31;35.80;;;19.25;;
59193;SDS011;44967;48.598;15.650;2024-03-08T11:09:08;40.20;;;19.98;;
59193;SDS011;44967;48.598;15.650;2024-03-08T11:11:54;41.72;;;19.77;;
59193;SDS011;44967;48.598;15.650;2024-03-08T11:14:45;38.30;;;18.13;;
59193;SDS011;44967;48.598;15.650;2024-03-08T11:17:16;35.88;;;19.48;;
59193;SDS011;44967;48.598;15.650;2024-03-08T11:19:46;34.08;;;18.73;;
59193;SDS011;44967;48.598;15.650;2024-03-08T11:22:23;31.55;;;18.23;;
59193;SDS011;44967;48.598;15.650;2024-03-08T11:25:03;31.70;;;17.35;;
59193;SDS011;44967;48.598;15.650;2024-03-08T11:27:35;30.63;;;16.45;;
59193;SDS011;44967;48.598;15.650;2024-03-08T11:30:06;34.10;;;18.63;;
59193;SDS011;44967;48.598;15.650;2024-03-08T11:32:37;32.03;;;16.27;;
59193;SDS011;44967;48.598;15.650;2024-03-08T11:35:17;26.52;;;14.93;;
59193;SDS011;44967;48.598;15.650;2024-03-08T11:37:45;28.70;;;14.82;;
59193;SDS011;44967;48.598;15.650;2024-03-08T11:40:14;25.67;;;13.73;;
59193;SDS011;44967;48.598;15.650;2024-03-08T11:42:47;26.13;;;13.85;;
59193;SDS011;44967;48.598;15.650;2024-03-08T11:45:17;22.88;;;12.68;;
59193;SDS011;44967;48.598;15.650;2024-03-08T11:47:46;22.50;;;12.75;;
59193;SDS011;44967;48.598;15.650;2024-03-08T11:50:12;23.15;;;11.38;;
59193;SDS011;44967;48.598;15.650;2024-03-08T11:52:39;21.38;;;10.88;;
59193;SDS011;44967;48.598;15.650;2024-03-08T11:55:05;18.45;;;10.95;;
59193;SDS011;44967;48.598;15.650;2024-03-08T11:57:32;20.55;;;9.77;;
59193;SDS011;44967;48.598;15.650;2024-03-08T11:59:58;19.60;;;9.85;;
59193;SDS011;44967;48.598;15.650;2024-03-08T12:02:32;16.13;;;8.43;;
59193;SDS011;44967;48.598;15.650;2024-03-08T12:05:03;13.27;;;7.53;;
59193;SDS011;44967;48.598;15.650;2024-03-08T12:07:35;13.73;;;8.05;;
59193;SDS011;44967;48.598;15.650;2024-03-08T12:10:20;13.93;;;7.90;;
59193;SDS011;44967;48.598;15.650;2024-03-08T12:12:49;13.10;;;8.13;;
59193;SDS011;44967;48.598;15.650;2024-03-08T12:15:17;13.57;;;7.95;;
59193;SDS011;44967;48.598;15.650;2024-03-08T12:17:48;15.52;;;7.90;;
59193;SDS011;44967;48.598;15.650;2024-03-08T12:20:21;14.55;;;8.05;;
59193;SDS011;44967;48.598;15.650;2024-03-08T12:22:53;15.10;;;8.10;;
59193;SDS011;44967;48.598;15.650;2024-03-08T12:25:22;13.38;;;7.80;;
59193;SDS011;44967;48.598;15.650;2024-03-08T12:27:52;16.00;;;8.43;;
59193;SDS011;44967;48.598;15.650;2024-03-08T12:30:25;14.60;;;8.35;;
59193;SDS011;44967;48.598;15.650;2024-03-08T12:32:57;19.23;;;9.65;;
59193;SDS011;44967;48.598;15.650;2024-03-08T12:35:25;16.17;;;9.02;;
59193;SDS011;44967;48.598;15.650;2024-03-08T12:37:53;15.40;;;9.25;;
59193;SDS011;44967;48.598;15.650;2024-03-08T12:40:27;16.48;;;9.02;;
59193;SDS011;44967;48.598;15.650;2024-03-08T12:42:59;17.73;;;8.85;;
59193;SDS011;44967;48.598;15.650;2024-03-08T12:45:26;18.33;;;9.13;;
59193;SDS011;44967;48.598;15.650;2024-03-08T12:47:53;17.40;;;9.38;;
59193;SDS011;44967;48.598;15.650;2024-03-08T12:50:20;18.40;;;8.98;;
59193;SDS011;44967;48.598;15.650;2024-03-08T12:52:47;20.45;;;10.00;;
59193;SDS011;44967;48.598;15.650;2024-03-08T12:55:18;18.95;;;9.65;;
59193;SDS011;44967;48.598;15.650;2024-03-08T12:57:44;17.33;;;10.18;;
59193;SDS011;44967;48.598;15.650;2024-03-08T13:00:10;16.63;;;8.70;;
59193;SDS011;44967;48.598;15.650;2024-03-08T13:02:45;16.25;;;9.23;;
59193;SDS011;44967;48.598;15.650;2024-03-08T13:05:11;17.85;;;9.23;;
59193;SDS011;44967;48.598;15.650;2024-03-08T13:07:40;16.70;;;10.00;;
59193;SDS011;44967;48.598;15.650;2024-03-08T13:10:10;22.40;;;11.30;;
59193;SDS011;44967;48.598;15.650;2024-03-08T13:12:42;18.65;;;11.15;;
59193;SDS011;44967;48.598;15.650;2024-03-08T13:15:09;21.17;;;11.10;;
59193;SDS011;44967;48.598;15.650;2024-03-08T13:17:48;19.35;;;10.35;;
59193;SDS011;44967;48.598;15.650;2024-03-08T13:20:14;20.27;;;9.45;;
59193;SDS011;44967;48.598;15.650;2024-03-08T13:22:45;16.10;;;9.63;;
59193;SDS011;44967;48.598;15.650;2024-03-08T13:25:11;22.58;;;9.90;;
59193;SDS011;44967;48.598;15.650;2024-03-08T13:27:40;16.65;;;9.00;;
59193;SDS011;44967;48.598;15.650;2024-03-08T13:30:08;17.77;;;8.35;;
59193;SDS011;44967;48.598;15.650;2024-03-08T13:32:41;17.55;;;9.07;;
59193;SDS011;44967;48.598;15.650;2024-03-08T13:35:11;18.50;;;9.60;;
59193;SDS011;44967;48.598;15.650;2024-03-08T13:37:40;19.60;;;10.02;;
59193;SDS011;44967;48.598;15.650;2024-03-08T13:40:08;17.40;;;9.95;;
59193;SDS011;44967;48.598;15.650;2024-03-08T13:42:39;17.02;;;9.27;;
59193;SDS011;44967;48.598;15.650;2024-03-08T13:45:07;14.23;;;8.43;;
59193;SDS011;44967;48.598;15.650;2024-03-08T13:47:37;14.80;;;8.55;;
59193;SDS011;44967;48.598;15.650;2024-03-08T13:50:05;15.23;;;8.93;;
59193;SDS011;44967;48.598;15.650;2024-03-08T13:52:35;17.40;;;9.20;;
59193;SDS011;44967;48.598;15.650;2024-03-08T13:55:01;14.90;;;8.95;;
59193;SDS011;44967;48.598;15.650;2024-03-08T13:57:27;19.05;;;9.75;;
59193;SDS011;44967;48.598;15.650;2024-03-08T13:59:52;18.35;;;11.10;;
59193;SDS011;44967;48.598;15.650;2024-03-08T14:02:19;49.75;;;13.90;;
59193;SDS011;44967;48.598;15.650;2024-03-08T14:04:44;18.00;;;10.07;;
59193;SDS011;44967;48.598;15.650;2024-03-08T14:07:10;21.15;;;9.98;;
59193;SDS011;44967;48.598;15.650;2024-03-08T14:09:36;23.52;;;11.35;;
59193;SDS011;44967;48.598;15.650;2024-03-08T14:12:04;17.27;;;10.10;;
59193;SDS011;44967;48.598;15.650;2024-03-08T14:14:33;22.10;;;10.38;;
59193;SDS011;44967;48.598;15.650;2024-03-08T14:17:00;19.35;;;9.95;;